LTAR

Details ICAO LTAR (VAS)
Name SIVAS
Region Turkey
Timezone Europe/Istanbul (UTC+3.0)
Plans Departing 27
Arriving 32
Stats Elevation 5,236 ft / 1,596 m (AMSL)
Location 39.813834° 36.903500°
Runways 1
Magnetic Variation 5.921° E
Sunrise 2017-12-11 04:44:56 UTC / 2017-12-11 07:44:56 Local
Sunset 2017-12-11 14:09:10 UTC / 2017-12-11 17:09:10 Local
Advertisement - Login to hide

Runways

ID Width Length Bearing (true) Bearing (mag) Surface Threshold Offset Overrun Length
01 98 ft / 30 m 12,521 ft / 3,816 m 17.81° 11.89° Concrete 0 ft / 0 m 690 ft / 210 m
19 98 ft / 30 m 12,521 ft / 3,816 m 197.82° 191.90° Concrete 0 ft / 0 m 0 ft / 0 m

Map

Weather


0- 5 10 15 20 25 30 35+ Temperature / ° C

Clouds and Precipitation
Forecast for 2017-12-11 18:00 UTC. Updated 2 hours ago

Ground ~20,000 ft ~40,000 ft Winds

METAR

LTAR 111750Z 00000KT CAVOK M01/M03 Q1028

TAF

Not found

Frequencies

Ground 121.90 MHz GND
Tower 118.10 MHz TWR
Warning: Do not use this data for real-world aviation or navigation. No guarantee of current accuracy is given.